createdAt,value
2023-02-21T00:00:01.927Z,9.07
2023-02-21T00:02:51.132Z,9.07
2023-02-21T00:05:38.640Z,9.14
2023-02-21T00:08:26.023Z,9.12
2023-02-21T00:11:14.089Z,9.11
2023-02-21T00:14:01.767Z,9.05
2023-02-21T00:16:49.556Z,9.01
2023-02-21T00:19:36.656Z,9.12
2023-02-21T00:22:24.482Z,8.99
2023-02-21T00:25:12.377Z,8.98
2023-02-21T00:28:00.118Z,9.10
2023-02-21T00:30:47.946Z,9.10
2023-02-21T00:33:34.881Z,9.02
2023-02-21T00:36:22.379Z,9.08
2023-02-21T00:39:10.005Z,9.00
2023-02-21T00:41:57.884Z,8.99
2023-02-21T00:44:45.371Z,8.94
2023-02-21T00:47:32.254Z,8.85
2023-02-21T00:50:19.662Z,8.77
2023-02-21T00:53:07.262Z,8.93
2023-02-21T00:55:54.562Z,8.99
2023-02-21T00:58:41.890Z,8.78
2023-02-21T01:01:29.719Z,8.77
2023-02-21T01:04:19.916Z,8.91
2023-02-21T01:07:09.338Z,8.78
2023-02-21T01:09:56.880Z,8.81
2023-02-21T01:12:44.657Z,8.79
2023-02-21T01:15:33.662Z,8.83
2023-02-21T01:18:20.985Z,8.78
2023-02-21T01:21:08.857Z,8.75
2023-02-21T01:23:56.805Z,8.87
2023-02-21T01:26:44.610Z,8.78
2023-02-21T01:29:32.229Z,8.82
2023-02-21T01:32:19.999Z,8.82
2023-02-21T01:35:07.646Z,8.78
2023-02-21T01:37:55.372Z,8.75
2023-02-21T01:40:43.342Z,8.71
2023-02-21T01:43:36.056Z,8.74
2023-02-21T01:46:24.442Z,8.68
2023-02-21T01:49:13.926Z,8.64
2023-02-21T01:52:03.205Z,8.53
2023-02-21T01:54:53.739Z,8.58
2023-02-21T01:57:42.010Z,8.59
2023-02-21T02:00:31.815Z,8.49
2023-02-21T02:03:24.924Z,8.47
2023-02-21T02:06:15.537Z,8.47
2023-02-21T02:09:03.473Z,8.47
2023-02-21T02:12:12.360Z,8.40
2023-02-21T02:14:50.644Z,8.41
2023-02-21T02:17:26.262Z,8.40
2023-02-21T02:20:17.325Z,8.41
2023-02-21T02:22:59.105Z,8.35
2023-02-21T02:25:35.342Z,8.41
2023-02-21T02:28:16.715Z,8.38
2023-02-21T02:31:07.250Z,8.38
2023-02-21T02:33:42.954Z,8.37
2023-02-21T02:36:18.408Z,8.42
2023-02-21T02:39:12.826Z,8.36
2023-02-21T02:41:51.329Z,8.40
2023-02-21T02:44:30.039Z,8.46
2023-02-21T02:47:03.059Z,8.35
2023-02-21T02:49:35.959Z,8.38
2023-02-21T02:52:09.681Z,8.38
2023-02-21T02:54:39.520Z,8.43
2023-02-21T02:57:13.275Z,8.39
2023-02-21T02:59:46.353Z,8.43
2023-02-21T03:02:38.416Z,8.39
2023-02-21T03:05:26.299Z,8.47
2023-02-21T03:08:04.831Z,8.36
2023-02-21T03:10:52.562Z,8.46
2023-02-21T03:13:37.429Z,8.39
2023-02-21T03:16:28.243Z,8.40
2023-02-21T03:19:17.683Z,8.54
2023-02-21T03:21:53.624Z,8.50
2023-02-21T03:24:25.930Z,8.56
2023-02-21T03:26:58.979Z,8.59
2023-02-21T03:29:49.438Z,8.47
2023-02-21T03:32:24.382Z,8.51
2023-02-21T03:34:54.585Z,8.59
2023-02-21T03:37:33.271Z,8.49
2023-02-21T03:40:04.768Z,8.60
2023-02-21T03:42:35.307Z,8.46
2023-02-21T03:45:07.063Z,8.52
2023-02-21T03:47:37.063Z,8.56
2023-02-21T03:50:07.470Z,8.45
2023-02-21T03:52:38.347Z,8.45
2023-02-21T03:55:09.691Z,8.55
2023-02-21T03:57:39.242Z,8.51
2023-02-21T04:00:11.614Z,8.53
2023-02-21T04:02:43.549Z,8.56
2023-02-21T04:05:15.864Z,8.52
2023-02-21T04:07:46.568Z,8.53
2023-02-21T04:10:15.483Z,8.61
2023-02-21T04:12:46.688Z,8.62
2023-02-21T04:15:16.452Z,8.63
2023-02-21T04:17:46.519Z,8.68
2023-02-21T04:20:16.699Z,8.55
2023-02-21T04:23:01.500Z,8.66
2023-02-21T04:25:19.821Z,8.60
2023-02-21T04:27:51.465Z,8.73
2023-02-21T04:30:21.373Z,8.67
2023-02-21T04:32:51.294Z,8.73
2023-02-21T04:35:20.962Z,8.67
2023-02-21T04:37:50.744Z,8.69
2023-02-21T04:40:20.786Z,8.68
2023-02-21T04:42:50.551Z,8.80
2023-02-21T04:45:20.394Z,8.77
2023-02-21T04:47:50.297Z,8.82
2023-02-21T04:50:20.252Z,8.76
2023-02-21T04:52:50.322Z,8.66
2023-02-21T04:55:19.850Z,8.75
2023-02-21T04:57:50.277Z,8.60
2023-02-21T05:00:20.089Z,8.45
2023-02-21T05:02:50.241Z,8.36
2023-02-21T05:05:19.857Z,8.39
2023-02-21T05:07:49.739Z,8.38
2023-02-21T05:10:20.099Z,8.40
2023-02-21T05:12:49.860Z,8.44
2023-02-21T05:15:19.728Z,8.44
2023-02-21T05:17:49.790Z,8.48
2023-02-21T05:20:19.776Z,8.40
2023-02-21T05:22:50.284Z,8.46
2023-02-21T05:25:24.414Z,8.49
2023-02-21T05:27:55.218Z,8.47
2023-02-21T05:30:25.384Z,8.37
2023-02-21T05:32:55.553Z,8.58
2023-02-21T05:35:26.853Z,8.58
2023-02-21T05:37:56.914Z,8.67
2023-02-21T05:40:26.760Z,8.53
2023-02-21T05:42:56.590Z,8.61
2023-02-21T05:45:26.482Z,8.50
2023-02-21T05:47:57.887Z,8.64
2023-02-21T05:50:27.819Z,8.59
2023-02-21T05:53:01.746Z,8.69
2023-02-21T05:55:31.540Z,8.56
2023-02-21T05:58:02.775Z,8.62
2023-02-21T06:00:33.101Z,8.61
2023-02-21T06:03:04.917Z,8.61
2023-02-21T06:05:34.244Z,8.68
2023-02-21T06:08:04.090Z,8.65
2023-02-21T06:10:35.447Z,8.59
2023-02-21T06:13:05.225Z,8.70
2023-02-21T06:15:35.420Z,8.63
2023-02-21T06:18:06.301Z,8.48
2023-02-21T06:20:36.177Z,8.45
2023-02-21T06:23:06.252Z,8.44
2023-02-21T06:25:36.222Z,8.34
2023-02-21T06:28:06.570Z,8.34
2023-02-21T06:30:36.454Z,8.52
2023-02-21T06:33:06.810Z,8.47
2023-02-21T06:35:36.656Z,8.47
2023-02-21T06:38:07.110Z,8.48
2023-02-21T06:40:36.868Z,8.53
2023-02-21T06:43:06.675Z,8.55
2023-02-21T06:45:36.511Z,8.53
2023-02-21T06:48:07.498Z,8.58
2023-02-21T06:50:37.498Z,8.62
2023-02-21T06:53:07.147Z,8.66
2023-02-21T06:55:36.915Z,8.67
2023-02-21T06:58:06.815Z,8.80
2023-02-21T07:00:36.577Z,8.80
2023-02-21T07:03:07.277Z,8.83
2023-02-21T07:05:38.655Z,8.88
2023-02-21T07:08:08.534Z,8.88
2023-02-21T07:10:38.750Z,8.88
2023-02-21T07:13:08.668Z,8.89
2023-02-21T07:15:38.541Z,8.94
2023-02-21T07:18:08.314Z,8.85
2023-02-21T07:23:07.223Z,9.07
2023-02-21T07:25:38.830Z,9.11
2023-02-21T07:28:08.879Z,9.06
2023-02-21T07:30:38.720Z,9.10
2023-02-21T07:33:08.573Z,9.03
2023-02-21T07:35:38.647Z,9.02
2023-02-21T07:38:08.420Z,9.00
2023-02-21T07:40:38.226Z,9.03
2023-02-21T07:43:07.696Z,8.97
2023-02-21T07:45:37.502Z,9.06
2023-02-21T07:48:07.268Z,8.96
2023-02-21T07:50:37.088Z,8.95
2023-02-21T07:53:06.854Z,8.96
2023-02-21T07:55:36.889Z,8.99
2023-02-21T07:58:07.461Z,9.11
2023-02-21T08:00:40.241Z,9.12
2023-02-21T08:03:10.634Z,9.08
2023-02-21T08:05:40.967Z,9.08
2023-02-21T08:08:11.385Z,9.10
2023-02-21T08:10:41.078Z,9.07
2023-02-21T08:13:10.575Z,9.22
2023-02-21T08:15:40.399Z,9.23
2023-02-21T08:18:12.916Z,9.22
2023-02-21T08:20:42.707Z,9.22
2023-02-21T08:23:12.305Z,9.07
2023-02-21T08:25:42.404Z,9.09
2023-02-21T08:28:12.716Z,9.08
2023-02-21T08:30:42.786Z,9.09
2023-02-21T08:33:12.572Z,9.15
2023-02-21T08:35:42.386Z,9.24
2023-02-21T08:38:11.910Z,9.24
2023-02-21T08:40:41.879Z,9.19
2023-02-21T08:43:11.790Z,9.25
2023-02-21T08:45:41.553Z,9.27
2023-02-21T08:48:11.870Z,9.27
2023-02-21T08:50:41.545Z,9.27
2023-02-21T08:53:15.221Z,9.33
2023-02-21T08:55:44.604Z,9.27
2023-02-21T08:58:14.681Z,9.38
2023-02-21T09:00:44.223Z,9.32
2023-02-21T09:03:14.725Z,9.24
2023-02-21T09:05:44.520Z,9.20
2023-02-21T09:08:15.185Z,9.34
2023-02-21T09:10:46.356Z,9.28
2023-02-21T09:13:15.183Z,9.19
2023-02-21T09:15:44.941Z,9.31
2023-02-21T09:18:14.873Z,9.37
2023-02-21T09:20:45.646Z,9.43
2023-02-21T09:23:17.067Z,9.56
2023-02-21T09:25:47.431Z,9.70
2023-02-21T09:28:17.578Z,9.79
2023-02-21T09:30:48.190Z,10.00
2023-02-21T09:33:18.313Z,10.10
2023-02-21T09:35:47.901Z,10.01
2023-02-21T09:38:17.426Z,10.05
2023-02-21T09:40:53.122Z,10.24
2023-02-21T09:43:31.510Z,10.32
2023-02-21T09:46:04.399Z,10.68
2023-02-21T09:48:34.564Z,11.03
2023-02-21T09:51:07.888Z,11.73
2023-02-21T09:53:40.659Z,11.82
2023-02-21T09:56:28.288Z,11.75
2023-02-21T09:58:58.984Z,12.11
2023-02-21T10:01:32.857Z,11.87
2023-02-21T10:04:25.819Z,11.93
2023-02-21T10:07:21.261Z,12.03
2023-02-21T10:10:03.193Z,12.03
2023-02-21T10:12:54.362Z,12.20
2023-02-21T10:15:46.731Z,12.29
2023-02-21T10:18:45.217Z,12.09
2023-02-21T10:21:32.458Z,11.72
2023-02-21T10:24:06.143Z,11.51
2023-02-21T10:26:40.236Z,11.13
2023-02-21T10:29:27.978Z,11.13
2023-02-21T10:32:02.390Z,11.06
2023-02-21T10:34:35.316Z,10.83
2023-02-21T10:37:26.945Z,10.69
2023-02-21T10:39:59.773Z,10.55
2023-02-21T10:42:32.884Z,10.44
2023-02-21T10:45:05.724Z,10.15
2023-02-21T10:47:41.103Z,9.93
2023-02-21T10:50:12.189Z,9.88
2023-02-21T10:52:51.148Z,9.78
2023-02-21T10:55:32.899Z,9.80
2023-02-21T10:57:59.856Z,9.73
2023-02-21T11:00:38.243Z,9.73
2023-02-21T11:03:23.138Z,9.70
2023-02-21T11:05:56.888Z,9.77
2023-02-21T11:08:38.664Z,10.27
2023-02-21T11:11:09.527Z,10.08
2023-02-21T11:13:38.558Z,10.22
2023-02-21T11:16:24.743Z,10.62
2023-02-21T11:19:08.556Z,10.53
2023-02-21T11:21:38.724Z,10.85
2023-02-21T11:24:10.854Z,10.82
2023-02-21T11:26:52.432Z,11.25
2023-02-21T11:29:25.824Z,11.53
2023-02-21T11:31:56.607Z,11.57
2023-02-21T11:34:29.173Z,11.72
2023-02-21T11:37:02.021Z,11.58
2023-02-21T11:39:35.761Z,11.42
2023-02-21T11:42:09.733Z,11.29
2023-02-21T11:44:43.187Z,11.45
2023-02-21T11:47:18.846Z,11.33
2023-02-21T11:50:06.804Z,11.15
2023-02-21T11:52:39.672Z,11.26
2023-02-21T11:55:21.755Z,11.39
2023-02-21T11:57:54.743Z,11.29
2023-02-21T12:00:45.455Z,11.49
2023-02-21T12:03:46.062Z,11.50
2023-02-21T12:06:21.700Z,11.30
2023-02-21T12:09:00.858Z,11.17
2023-02-21T12:11:49.167Z,11.04
2023-02-21T12:14:30.392Z,10.96
2023-02-21T12:17:18.150Z,11.33
2023-02-21T12:20:10.363Z,11.39
2023-02-21T12:22:57.594Z,11.48
2023-02-21T12:25:39.844Z,11.36
2023-02-21T12:28:33.471Z,11.03
2023-02-21T12:31:26.379Z,10.97
2023-02-21T12:34:22.924Z,10.97
2023-02-21T12:37:07.781Z,11.54
2023-02-21T12:39:55.585Z,11.54
2023-02-21T12:42:29.197Z,11.74
2023-02-21T12:45:18.732Z,11.59
2023-02-21T12:48:03.288Z,11.54
2023-02-21T12:50:39.249Z,11.25
2023-02-21T12:53:35.825Z,11.05
2023-02-21T12:56:12.930Z,11.06
2023-02-21T12:58:51.785Z,11.14
2023-02-21T13:01:36.748Z,11.02
2023-02-21T13:04:43.254Z,11.07
2023-02-21T13:07:17.419Z,11.05
2023-02-21T13:09:53.118Z,11.03
2023-02-21T13:12:28.735Z,11.01
2023-02-21T13:15:04.510Z,11.00
2023-02-21T13:17:34.350Z,10.87
2023-02-21T13:20:07.152Z,10.99
2023-02-21T13:23:31.814Z,10.99
2023-02-21T13:26:38.851Z,10.93
2023-02-21T13:29:24.676Z,10.92
2023-02-21T13:32:09.714Z,10.85
2023-02-21T13:34:45.689Z,10.85
2023-02-21T13:37:21.376Z,11.03
2023-02-21T13:39:58.455Z,11.07
2023-02-21T13:42:30.363Z,11.13
2023-02-21T13:45:22.874Z,11.33
2023-02-21T13:48:04.473Z,11.22
2023-02-21T13:50:41.810Z,11.15
2023-02-21T13:53:20.203Z,11.23
2023-02-21T13:56:11.047Z,11.09
2023-02-21T13:58:46.386Z,11.13
2023-02-21T14:01:30.982Z,11.13
2023-02-21T14:04:01.518Z,11.27
2023-02-21T14:06:37.103Z,11.29
2023-02-21T14:09:09.904Z,11.25
2023-02-21T14:11:42.797Z,11.14
2023-02-21T14:14:27.668Z,11.14
2023-02-21T14:17:06.253Z,11.10
2023-02-21T14:19:45.151Z,10.90
2023-02-21T14:22:20.674Z,10.90
2023-02-21T14:24:56.531Z,10.90
2023-02-21T14:27:32.647Z,11.05
2023-02-21T14:30:05.684Z,10.97
2023-02-21T14:32:55.338Z,11.11
2023-02-21T14:35:36.668Z,11.15
2023-02-21T14:38:10.766Z,11.15
2023-02-21T14:40:46.481Z,11.06
2023-02-21T14:43:33.950Z,11.09
2023-02-21T14:46:15.350Z,11.07
2023-02-21T14:48:50.719Z,11.23
2023-02-21T14:51:38.153Z,11.18
2023-02-21T14:54:21.478Z,11.13
2023-02-21T14:57:28.897Z,11.15
2023-02-21T15:00:09.336Z,11.05
2023-02-21T15:02:59.833Z,11.07
2023-02-21T15:05:39.072Z,11.01
2023-02-21T15:08:18.068Z,11.16
2023-02-21T15:10:50.007Z,11.18
2023-02-21T15:13:34.601Z,10.88
2023-02-21T15:16:07.590Z,10.88
2023-02-21T15:18:40.694Z,10.72
2023-02-21T15:21:15.037Z,10.82
2023-02-21T15:23:47.608Z,10.87
2023-02-21T15:26:23.226Z,10.78
2023-02-21T15:29:14.487Z,10.69
2023-02-21T15:31:56.565Z,10.71
2023-02-21T15:34:33.415Z,10.80
2023-02-21T15:37:27.441Z,10.65
2023-02-21T15:40:07.983Z,10.60
2023-02-21T15:42:39.642Z,10.62
2023-02-21T15:45:12.401Z,10.62
2023-02-21T15:47:42.709Z,10.57
2023-02-21T15:50:33.460Z,10.38
2023-02-21T15:53:17.568Z,10.38
2023-02-21T15:55:49.169Z,10.37
2023-02-21T15:58:29.195Z,10.25
2023-02-21T16:01:11.190Z,10.08
2023-02-21T16:03:43.208Z,10.05
2023-02-21T16:06:16.138Z,10.08
2023-02-21T16:08:57.199Z,9.93
2023-02-21T16:11:29.705Z,9.86
2023-02-21T16:13:59.784Z,9.72
2023-02-21T16:16:32.619Z,9.80
2023-02-21T16:19:02.963Z,9.64
2023-02-21T16:21:32.839Z,9.64
2023-02-21T16:24:17.594Z,9.39
2023-02-21T16:26:50.753Z,9.26
2023-02-21T16:29:20.464Z,9.28
2023-02-21T16:31:51.174Z,9.14
2023-02-21T16:34:20.809Z,9.23
2023-02-21T16:36:52.254Z,8.99
2023-02-21T16:39:21.293Z,9.04
2023-02-21T16:41:52.153Z,9.14
2023-02-21T16:44:21.968Z,9.12
2023-02-21T16:46:55.062Z,8.96
2023-02-21T16:49:24.939Z,8.99
2023-02-21T16:51:55.069Z,8.80
2023-02-21T16:54:24.806Z,8.72
2023-02-21T16:56:55.117Z,8.72
2023-02-21T16:59:26.356Z,8.68
2023-02-21T17:01:56.211Z,8.57
2023-02-21T17:04:27.532Z,8.63
2023-02-21T17:07:00.956Z,8.63
2023-02-21T17:09:33.446Z,8.60
2023-02-21T17:12:03.402Z,8.58
2023-02-21T17:14:34.862Z,8.43
2023-02-21T17:17:04.694Z,8.56
2023-02-21T17:19:34.782Z,8.49
2023-02-21T17:22:04.689Z,8.42
2023-02-21T17:24:34.500Z,8.32
2023-02-21T17:27:04.413Z,8.47
2023-02-21T17:29:34.240Z,8.47
2023-02-21T17:32:05.684Z,8.39
2023-02-21T17:34:36.368Z,8.27
2023-02-21T17:37:07.164Z,8.09
2023-02-21T17:39:37.295Z,8.02
2023-02-21T17:42:07.102Z,8.27
2023-02-21T17:44:37.836Z,8.15
2023-02-21T17:47:08.841Z,8.17
2023-02-21T17:49:38.607Z,8.17
2023-02-21T17:52:08.210Z,8.05
2023-02-21T17:54:37.984Z,8.11
2023-02-21T17:57:08.858Z,8.14
2023-02-21T17:59:39.486Z,7.98
2023-02-21T18:02:09.059Z,7.85
2023-02-21T18:04:39.331Z,7.97
2023-02-21T18:07:11.787Z,7.67
2023-02-21T18:09:40.944Z,7.84
2023-02-21T18:12:10.524Z,7.80
2023-02-21T18:14:40.322Z,7.67
2023-02-21T18:17:09.879Z,7.55
2023-02-21T18:19:39.637Z,7.81
2023-02-21T18:22:09.734Z,7.59
2023-02-21T18:24:40.881Z,7.57
2023-02-21T18:27:13.575Z,7.57
2023-02-21T18:29:43.715Z,7.56
2023-02-21T18:32:13.322Z,7.65
2023-02-21T18:34:44.252Z,7.59
2023-02-21T18:37:13.019Z,7.56
2023-02-21T18:39:42.688Z,7.64
2023-02-21T18:42:12.686Z,7.55
2023-02-21T18:44:42.490Z,7.55
2023-02-21T18:47:13.985Z,7.74
2023-02-21T18:49:43.917Z,7.64
2023-02-21T18:52:14.258Z,7.59
2023-02-21T18:54:49.744Z,7.52
2023-02-21T18:57:21.271Z,7.40
2023-02-21T18:59:51.143Z,7.30
2023-02-21T19:02:20.830Z,7.23
2023-02-21T19:04:50.616Z,7.29
2023-02-21T19:07:20.367Z,7.18
2023-02-21T19:09:54.514Z,7.18
2023-02-21T19:12:24.360Z,7.10
2023-02-21T19:14:54.129Z,7.09
2023-02-21T19:17:24.080Z,7.20
2023-02-21T19:19:53.958Z,7.18
2023-02-21T19:22:23.476Z,7.19
2023-02-21T19:24:53.315Z,7.31
2023-02-21T19:27:22.820Z,7.26
2023-02-21T19:29:53.448Z,7.25
2023-02-21T19:32:23.566Z,7.20
2023-02-21T19:34:53.419Z,7.12
2023-02-21T19:37:24.090Z,7.20
2023-02-21T19:39:53.888Z,7.51
2023-02-21T19:42:23.540Z,7.41
2023-02-21T19:44:53.361Z,7.25
2023-02-21T19:47:23.182Z,7.16
2023-02-21T19:49:53.295Z,7.12
2023-02-21T19:52:22.939Z,7.14
2023-02-21T19:54:52.755Z,7.20
2023-02-21T19:57:22.466Z,7.30
2023-02-21T19:59:52.293Z,7.34
2023-02-21T20:02:21.851Z,7.24
2023-02-21T20:04:51.728Z,7.27
2023-02-21T20:07:21.211Z,7.30
2023-02-21T20:09:51.400Z,7.16
2023-02-21T20:12:22.876Z,7.30
2023-02-21T20:14:53.930Z,7.30
2023-02-21T20:17:23.769Z,7.42
2023-02-21T20:19:53.165Z,7.19
2023-02-21T20:22:23.165Z,7.19
2023-02-21T20:24:52.990Z,7.23
2023-02-21T20:27:22.597Z,7.03
2023-02-21T20:29:52.529Z,7.03
2023-02-21T20:32:22.346Z,6.95
2023-02-21T20:34:53.768Z,6.98
2023-02-21T20:37:24.418Z,6.93
2023-02-21T20:39:54.217Z,6.73
2023-02-21T20:42:25.116Z,6.95
2023-02-21T20:44:55.140Z,6.69
2023-02-21T20:47:25.110Z,6.79
2023-02-21T20:49:54.888Z,7.04
2023-02-21T20:52:24.425Z,6.81
2023-02-21T20:54:54.312Z,6.63
2023-02-21T20:57:24.308Z,6.65
2023-02-21T20:59:55.684Z,6.53
2023-02-21T21:02:25.228Z,6.53
2023-02-21T21:04:55.054Z,6.50
2023-02-21T21:07:25.173Z,6.54
2023-02-21T21:09:55.076Z,6.48
2023-02-21T21:12:25.209Z,6.64
2023-02-21T21:14:55.331Z,6.54
2023-02-21T21:17:25.164Z,6.52
2023-02-21T21:19:55.104Z,6.55
2023-02-21T21:22:28.714Z,6.55
2023-02-21T21:24:58.548Z,6.52
2023-02-21T21:27:28.363Z,6.47
2023-02-21T21:29:58.595Z,6.52
2023-02-21T21:32:28.808Z,6.50
2023-02-21T21:34:59.246Z,6.44
2023-02-21T21:37:30.358Z,6.40
2023-02-21T21:40:01.869Z,6.34
2023-02-21T21:42:31.721Z,6.30
2023-02-21T21:45:01.510Z,6.45
2023-02-21T21:47:32.349Z,6.50
2023-02-21T21:50:03.586Z,6.61
2023-02-21T21:52:32.845Z,6.31
2023-02-21T21:55:02.391Z,6.38
2023-02-21T21:57:32.953Z,6.32
2023-02-21T22:00:02.446Z,6.40
2023-02-21T22:02:33.960Z,6.35
2023-02-21T22:05:03.736Z,6.35
2023-02-21T22:07:33.592Z,6.39
2023-02-21T22:10:03.367Z,6.47
2023-02-21T22:12:33.469Z,6.30
2023-02-21T22:15:03.242Z,6.30
2023-02-21T22:17:33.104Z,6.35
2023-02-21T22:20:04.527Z,6.35
2023-02-21T22:22:34.336Z,6.13
2023-02-21T22:25:04.567Z,6.05
2023-02-21T22:27:36.076Z,6.21
2023-02-21T22:30:09.216Z,6.09
2023-02-21T22:32:43.780Z,5.98
2023-02-21T22:35:22.295Z,5.92
2023-02-21T22:37:55.369Z,6.32
2023-02-21T22:40:37.215Z,6.00
2023-02-21T22:43:09.124Z,6.06
2023-02-21T22:45:39.808Z,6.13
2023-02-21T22:48:10.231Z,5.97
2023-02-21T22:50:40.164Z,6.09
2023-02-21T22:53:13.187Z,5.94
2023-02-21T22:55:43.944Z,5.94
2023-02-21T22:58:13.940Z,5.63
2023-02-21T23:00:43.725Z,5.63
2023-02-21T23:03:13.901Z,5.80
2023-02-21T23:05:45.944Z,5.69
2023-02-21T23:08:18.167Z,5.88
2023-02-21T23:10:48.886Z,5.79
2023-02-21T23:13:21.851Z,5.79
2023-02-21T23:15:55.448Z,5.67
2023-02-21T23:18:26.029Z,5.65
2023-02-21T23:20:58.586Z,5.88
2023-02-21T23:23:29.742Z,5.67
2023-02-21T23:26:00.568Z,5.58
2023-02-21T23:28:31.468Z,5.68
2023-02-21T23:31:01.352Z,5.94
2023-02-21T23:33:33.890Z,5.71
2023-02-21T23:36:04.897Z,5.67
2023-02-21T23:38:41.176Z,5.41
2023-02-21T23:41:11.075Z,5.30
2023-02-21T23:43:41.668Z,5.39
2023-02-21T23:46:12.669Z,5.18
2023-02-21T23:48:42.534Z,5.21
2023-02-21T23:51:13.965Z,5.14
2023-02-21T23:53:43.965Z,4.95
2023-02-21T23:56:14.931Z,4.69
2023-02-21T23:58:49.041Z,4.72
